<?xml version="1.0" encoding="UTF-8" standalone="no" ?>
<gpx xmlns="http://www.topografix.com/GPX/1/1" xmlns:xsi="http://www.w3.org/2001/XMLSchema-instance" xsi:schemaLocation="http://www.topografix.com/GPX/1/1 http://www.topografix.com/GPX/1/1/gpx.xsd" version="1.1" creator="VisuGPX - https://www.visugpx.com">
  <metadata>
    <name>Rando Coulée de lave de Roquelaure</name>
    <desc><![CDATA[curieux!!!]]></desc>
  </metadata>
  <trk>
    <name><![CDATA[Rando Coulée de lave de Roquelaure_1]]></name>
    <trkseg>
      <trkpt lat="44.49604" lon="2.80146">
        <ele>544.6</ele>
        <time>2022-04-25T13:21:08Z</time>
      </trkpt>
      <trkpt lat="44.49599" lon="2.80153">
        <ele>543.6</ele>
        <time>2022-04-25T13:21:13Z</time>
      </trkpt>
      <trkpt lat="44.496" lon="2.80154">
        <ele>543.6</ele>
        <time>2022-04-25T13:21:14Z</time>
      </trkpt>
      <trkpt lat="44.496" lon="2.80153">
        <ele>543.8</ele>
        <time>2022-04-25T13:21:17Z</time>
      </trkpt>
      <trkpt lat="44.49606" lon="2.80155">
        <ele>543.6</ele>
        <time>2022-04-25T13:21:27Z</time>
      </trkpt>
      <trkpt lat="44.49606" lon="2.80155">
        <ele>544</ele>
        <time>2022-04-25T13:21:30Z</time>
      </trkpt>
      <trkpt lat="44.49605" lon="2.80153">
        <ele>544</ele>
        <time>2022-04-25T13:21:35Z</time>
      </trkpt>
      <trkpt lat="44.49604" lon="2.80156">
        <ele>544</ele>
        <time>2022-04-25T13:21:50Z</time>
      </trkpt>
      <trkpt lat="44.49606" lon="2.80155">
        <ele>544</ele>
        <time>2022-04-25T13:22:02Z</time>
      </trkpt>
      <trkpt lat="44.49606" lon="2.80157">
        <ele>544</ele>
        <time>2022-04-25T13:22:19Z</time>
      </trkpt>
      <trkpt lat="44.49605" lon="2.80157">
        <ele>544</ele>
        <time>2022-04-25T13:22:35Z</time>
      </trkpt>
      <trkpt lat="44.49603" lon="2.80152">
        <ele>544</ele>
        <time>2022-04-25T13:22:53Z</time>
      </trkpt>
      <trkpt lat="44.49606" lon="2.80149">
        <ele>544</ele>
        <time>2022-04-25T13:23:08Z</time>
      </trkpt>
      <trkpt lat="44.49607" lon="2.80146">
        <ele>544</ele>
        <time>2022-04-25T13:23:26Z</time>
      </trkpt>
      <trkpt lat="44.49603" lon="2.80137">
        <ele>544</ele>
        <time>2022-04-25T13:23:35Z</time>
      </trkpt>
      <trkpt lat="44.49604" lon="2.80137">
        <ele>544</ele>
        <time>2022-04-25T13:23:38Z</time>
      </trkpt>
      <trkpt lat="44.49607" lon="2.80143">
        <ele>543.8</ele>
        <time>2022-04-25T13:23:41Z</time>
      </trkpt>
      <trkpt lat="44.49609" lon="2.80157">
        <ele>543</ele>
        <time>2022-04-25T13:23:50Z</time>
      </trkpt>
      <trkpt lat="44.49609" lon="2.80158">
        <ele>543</ele>
        <time>2022-04-25T13:23:52Z</time>
      </trkpt>
      <trkpt lat="44.49608" lon="2.80159">
        <ele>542.8</ele>
        <time>2022-04-25T13:23:54Z</time>
      </trkpt>
      <trkpt lat="44.49606" lon="2.8016">
        <ele>542.6</ele>
        <time>2022-04-25T13:23:59Z</time>
      </trkpt>
      <trkpt lat="44.49606" lon="2.80161">
        <ele>543</ele>
        <time>2022-04-25T13:24:16Z</time>
      </trkpt>
      <trkpt lat="44.49608" lon="2.80164">
        <ele>542.8</ele>
        <time>2022-04-25T13:24:34Z</time>
      </trkpt>
      <trkpt lat="44.49608" lon="2.80164">
        <ele>542.6</ele>
        <time>2022-04-25T13:24:35Z</time>
      </trkpt>
      <trkpt lat="44.49605" lon="2.80164">
        <ele>542.6</ele>
        <time>2022-04-25T13:24:57Z</time>
      </trkpt>
      <trkpt lat="44.49604" lon="2.80164">
        <ele>542.8</ele>
        <time>2022-04-25T13:25:18Z</time>
      </trkpt>
      <trkpt lat="44.496" lon="2.80168">
        <ele>542.8</ele>
        <time>2022-04-25T13:25:38Z</time>
      </trkpt>
      <trkpt lat="44.49601" lon="2.80168">
        <ele>542.8</ele>
        <time>2022-04-25T13:25:52Z</time>
      </trkpt>
      <trkpt lat="44.49602" lon="2.80164">
        <ele>542.8</ele>
        <time>2022-04-25T13:26:00Z</time>
      </trkpt>
      <trkpt lat="44.49604" lon="2.80161">
        <ele>543.2</ele>
        <time>2022-04-25T13:26:05Z</time>
      </trkpt>
      <trkpt lat="44.49608" lon="2.80151">
        <ele>542.8</ele>
        <time>2022-04-25T13:26:13Z</time>
      </trkpt>
      <trkpt lat="44.49608" lon="2.80145">
        <ele>543.6</ele>
        <time>2022-04-25T13:26:17Z</time>
      </trkpt>
      <trkpt lat="44.4961" lon="2.80137">
        <ele>544</ele>
        <time>2022-04-25T13:26:23Z</time>
      </trkpt>
      <trkpt lat="44.4961" lon="2.80126">
        <ele>545.2</ele>
        <time>2022-04-25T13:26:30Z</time>
      </trkpt>
      <trkpt lat="44.49608" lon="2.80124">
        <ele>545.6</ele>
        <time>2022-04-25T13:26:32Z</time>
      </trkpt>
      <trkpt lat="44.49604" lon="2.80122">
        <ele>546.6</ele>
        <time>2022-04-25T13:26:36Z</time>
      </trkpt>
      <trkpt lat="44.49599" lon="2.80124">
        <ele>547.4</ele>
        <time>2022-04-25T13:26:42Z</time>
      </trkpt>
      <trkpt lat="44.49598" lon="2.80126">
        <ele>547.4</ele>
        <time>2022-04-25T13:26:43Z</time>
      </trkpt>
      <trkpt lat="44.49597" lon="2.80128">
        <ele>547.6</ele>
        <time>2022-04-25T13:26:44Z</time>
      </trkpt>
      <trkpt lat="44.49596" lon="2.80131">
        <ele>547.6</ele>
        <time>2022-04-25T13:26:46Z</time>
      </trkpt>
      <trkpt lat="44.49593" lon="2.80134">
        <ele>548</ele>
        <time>2022-04-25T13:26:50Z</time>
      </trkpt>
      <trkpt lat="44.49593" lon="2.80135">
        <ele>548</ele>
        <time>2022-04-25T13:26:51Z</time>
      </trkpt>
      <trkpt lat="44.4959" lon="2.80137">
        <ele>548.2</ele>
        <time>2022-04-25T13:26:55Z</time>
      </trkpt>
      <trkpt lat="44.49589" lon="2.80137">
        <ele>548.4</ele>
        <time>2022-04-25T13:26:56Z</time>
      </trkpt>
      <trkpt lat="44.49586" lon="2.80137">
        <ele>548.6</ele>
        <time>2022-04-25T13:26:59Z</time>
      </trkpt>
      <trkpt lat="44.49586" lon="2.80136">
        <ele>548.8</ele>
        <time>2022-04-25T13:27:01Z</time>
      </trkpt>
      <trkpt lat="44.49583" lon="2.80135">
        <ele>549.2</ele>
        <time>2022-04-25T13:27:04Z</time>
      </trkpt>
      <trkpt lat="44.49582" lon="2.80135">
        <ele>549.8</ele>
        <time>2022-04-25T13:27:06Z</time>
      </trkpt>
      <trkpt lat="44.49581" lon="2.80135">
        <ele>550</ele>
        <time>2022-04-25T13:27:07Z</time>
      </trkpt>
      <trkpt lat="44.4958" lon="2.80135">
        <ele>550.2</ele>
        <time>2022-04-25T13:27:09Z</time>
      </trkpt>
      <trkpt lat="44.49578" lon="2.80135">
        <ele>550.8</ele>
        <time>2022-04-25T13:27:12Z</time>
      </trkpt>
      <trkpt lat="44.49577" lon="2.80135">
        <ele>551</ele>
        <time>2022-04-25T13:27:14Z</time>
      </trkpt>
      <trkpt lat="44.49572" lon="2.80135">
        <ele>551.8</ele>
        <time>2022-04-25T13:27:18Z</time>
      </trkpt>
      <trkpt lat="44.49572" lon="2.80134">
        <ele>551.8</ele>
        <time>2022-04-25T13:27:19Z</time>
      </trkpt>
      <trkpt lat="44.49571" lon="2.80135">
        <ele>552</ele>
        <time>2022-04-25T13:27:21Z</time>
      </trkpt>
      <trkpt lat="44.49571" lon="2.8014">
        <ele>552.8</ele>
        <time>2022-04-25T13:27:27Z</time>
      </trkpt>
      <trkpt lat="44.49572" lon="2.80141">
        <ele>553</ele>
        <time>2022-04-25T13:27:33Z</time>
      </trkpt>
      <trkpt lat="44.4957" lon="2.80141">
        <ele>552</ele>
        <time>2022-04-25T13:27:52Z</time>
      </trkpt>
      <trkpt lat="44.49568" lon="2.80143">
        <ele>551.8</ele>
        <time>2022-04-25T13:28:04Z</time>
      </trkpt>
      <trkpt lat="44.49568" lon="2.80145">
        <ele>551.8</ele>
        <time>2022-04-25T13:28:09Z</time>
      </trkpt>
      <trkpt lat="44.49569" lon="2.80143">
        <ele>551.8</ele>
        <time>2022-04-25T13:28:17Z</time>
      </trkpt>
      <trkpt lat="44.49572" lon="2.80147">
        <ele>552</ele>
        <time>2022-04-25T13:28:32Z</time>
      </trkpt>
      <trkpt lat="44.49572" lon="2.80148">
        <ele>551.8</ele>
        <time>2022-04-25T13:28:48Z</time>
      </trkpt>
      <trkpt lat="44.4957" lon="2.8015">
        <ele>552.2</ele>
        <time>2022-04-25T13:29:02Z</time>
      </trkpt>
      <trkpt lat="44.49572" lon="2.80144">
        <ele>552.4</ele>
        <time>2022-04-25T13:29:14Z</time>
      </trkpt>
      <trkpt lat="44.49572" lon="2.80141">
        <ele>552.8</ele>
        <time>2022-04-25T13:29:20Z</time>
      </trkpt>
      <trkpt lat="44.49571" lon="2.80141">
        <ele>552.6</ele>
        <time>2022-04-25T13:29:32Z</time>
      </trkpt>
      <trkpt lat="44.4957" lon="2.80143">
        <ele>551.8</ele>
        <time>2022-04-25T13:29:50Z</time>
      </trkpt>
      <trkpt lat="44.4957" lon="2.80143">
        <ele>551.8</ele>
        <time>2022-04-25T13:29:51Z</time>
      </trkpt>
      <trkpt lat="44.4957" lon="2.8014">
        <ele>552.8</ele>
        <time>2022-04-25T13:30:03Z</time>
      </trkpt>
      <trkpt lat="44.49572" lon="2.80139">
        <ele>553</ele>
        <time>2022-04-25T13:30:07Z</time>
      </trkpt>
      <trkpt lat="44.49581" lon="2.80138">
        <ele>551.8</ele>
        <time>2022-04-25T13:30:16Z</time>
      </trkpt>
      <trkpt lat="44.49583" lon="2.80139">
        <ele>551.6</ele>
        <time>2022-04-25T13:30:18Z</time>
      </trkpt>
      <trkpt lat="44.49585" lon="2.80139">
        <ele>551.4</ele>
        <time>2022-04-25T13:30:20Z</time>
      </trkpt>
      <trkpt lat="44.49589" lon="2.80139">
        <ele>550.6</ele>
        <time>2022-04-25T13:30:25Z</time>
      </trkpt>
      <trkpt lat="44.49597" lon="2.80137">
        <ele>549.6</ele>
        <time>2022-04-25T13:30:32Z</time>
      </trkpt>
      <trkpt lat="44.49601" lon="2.80135">
        <ele>549</ele>
        <time>2022-04-25T13:30:36Z</time>
      </trkpt>
      <trkpt lat="44.49604" lon="2.8013">
        <ele>548.4</ele>
        <time>2022-04-25T13:30:42Z</time>
      </trkpt>
      <trkpt lat="44.49604" lon="2.80125">
        <ele>547.4</ele>
        <time>2022-04-25T13:30:48Z</time>
      </trkpt>
      <trkpt lat="44.49604" lon="2.80126">
        <ele>547.2</ele>
        <time>2022-04-25T13:30:49Z</time>
      </trkpt>
      <trkpt lat="44.49603" lon="2.80128">
        <ele>546.4</ele>
        <time>2022-04-25T13:30:54Z</time>
      </trkpt>
      <trkpt lat="44.49603" lon="2.80133">
        <ele>545.8</ele>
        <time>2022-04-25T13:30:58Z</time>
      </trkpt>
      <trkpt lat="44.49604" lon="2.80136">
        <ele>545.4</ele>
        <time>2022-04-25T13:31:01Z</time>
      </trkpt>
      <trkpt lat="44.49606" lon="2.8014">
        <ele>544</ele>
        <time>2022-04-25T13:31:04Z</time>
      </trkpt>
      <trkpt lat="44.49607" lon="2.80142">
        <ele>544</ele>
        <time>2022-04-25T13:31:05Z</time>
      </trkpt>
      <trkpt lat="44.49607" lon="2.80144">
        <ele>544</ele>
        <time>2022-04-25T13:31:07Z</time>
      </trkpt>
      <trkpt lat="44.49609" lon="2.80146">
        <ele>543.6</ele>
        <time>2022-04-25T13:31:09Z</time>
      </trkpt>
      <trkpt lat="44.4961" lon="2.80148">
        <ele>543.6</ele>
        <time>2022-04-25T13:31:11Z</time>
      </trkpt>
      <trkpt lat="44.49613" lon="2.80156">
        <ele>543</ele>
        <time>2022-04-25T13:31:19Z</time>
      </trkpt>
      <trkpt lat="44.49613" lon="2.80157">
        <ele>543</ele>
        <time>2022-04-25T13:31:20Z</time>
      </trkpt>
      <trkpt lat="44.49616" lon="2.80159">
        <ele>543.6</ele>
        <time>2022-04-25T13:31:29Z</time>
      </trkpt>
      <trkpt lat="44.49616" lon="2.8016">
        <ele>543.4</ele>
        <time>2022-04-25T13:31:32Z</time>
      </trkpt>
      <trkpt lat="44.49616" lon="2.80171">
        <ele>542.6</ele>
        <time>2022-04-25T13:31:41Z</time>
      </trkpt>
      <trkpt lat="44.49616" lon="2.80174">
        <ele>542.4</ele>
        <time>2022-04-25T13:31:44Z</time>
      </trkpt>
      <trkpt lat="44.49616" lon="2.80174">
        <ele>542.4</ele>
        <time>2022-04-25T13:31:45Z</time>
      </trkpt>
      <trkpt lat="44.49615" lon="2.80177">
        <ele>541.8</ele>
        <time>2022-04-25T13:31:53Z</time>
      </trkpt>
      <trkpt lat="44.49614" lon="2.80186">
        <ele>541.6</ele>
        <time>2022-04-25T13:32:01Z</time>
      </trkpt>
      <trkpt lat="44.49614" lon="2.8019">
        <ele>541.6</ele>
        <time>2022-04-25T13:32:05Z</time>
      </trkpt>
      <trkpt lat="44.49614" lon="2.8019">
        <ele>541.6</ele>
        <time>2022-04-25T13:32:06Z</time>
      </trkpt>
      <trkpt lat="44.49615" lon="2.80193">
        <ele>542.2</ele>
        <time>2022-04-25T13:32:17Z</time>
      </trkpt>
      <trkpt lat="44.49616" lon="2.80193">
        <ele>541.2</ele>
        <time>2022-04-25T13:32:30Z</time>
      </trkpt>
      <trkpt lat="44.49615" lon="2.80194">
        <ele>542</ele>
        <time>2022-04-25T13:32:46Z</time>
      </trkpt>
      <trkpt lat="44.49615" lon="2.80193">
        <ele>541.6</ele>
        <time>2022-04-25T13:33:04Z</time>
      </trkpt>
      <trkpt lat="44.49615" lon="2.80195">
        <ele>542.2</ele>
        <time>2022-04-25T13:33:24Z</time>
      </trkpt>
      <trkpt lat="44.49616" lon="2.80185">
        <ele>542.8</ele>
        <time>2022-04-25T13:33:34Z</time>
      </trkpt>
      <trkpt lat="44.49615" lon="2.80182">
        <ele>542.8</ele>
        <time>2022-04-25T13:33:36Z</time>
      </trkpt>
      <trkpt lat="44.49606" lon="2.80165">
        <ele>542.4</ele>
        <time>2022-04-25T13:33:48Z</time>
      </trkpt>
      <trkpt lat="44.49602" lon="2.80161">
        <ele>542.8</ele>
        <time>2022-04-25T13:33:55Z</time>
      </trkpt>
      <trkpt lat="44.49601" lon="2.80161">
        <ele>542.4</ele>
        <time>2022-04-25T13:34:01Z</time>
      </trkpt>
      <trkpt lat="44.49601" lon="2.80163">
        <ele>542.2</ele>
        <time>2022-04-25T13:34:16Z</time>
      </trkpt>
      <trkpt lat="44.49601" lon="2.80165">
        <ele>542.2</ele>
        <time>2022-04-25T13:34:27Z</time>
      </trkpt>
      <trkpt lat="44.496" lon="2.80164">
        <ele>542.4</ele>
        <time>2022-04-25T13:34:33Z</time>
      </trkpt>
      <trkpt lat="44.49597" lon="2.80155">
        <ele>542.4</ele>
        <time>2022-04-25T13:34:45Z</time>
      </trkpt>
      <trkpt lat="44.49599" lon="2.80155">
        <ele>542.4</ele>
        <time>2022-04-25T13:34:51Z</time>
      </trkpt>
    </trkseg>
  </trk>
</gpx>